createdAt,value
2022-08-05T00:02:22.825Z,4.30
2022-08-05T00:04:55.060Z,4.30
2022-08-05T00:07:58.617Z,4.00
2022-08-05T00:10:12.140Z,4.00
2022-08-05T00:12:56.606Z,4.30
2022-08-05T00:15:56.099Z,4.10
2022-08-05T00:18:21.296Z,3.90
2022-08-05T00:20:49.999Z,4.00
2022-08-05T00:23:44.199Z,4.90
2022-08-05T00:26:07.211Z,4.80
2022-08-05T00:28:35.942Z,4.30
2022-08-05T00:31:04.737Z,4.00
2022-08-05T00:34:53.694Z,4.00
2022-08-05T00:37:10.377Z,4.60
2022-08-05T00:39:13.720Z,4.60
2022-08-05T00:41:55.278Z,4.40
2022-08-05T00:44:30.537Z,4.00
2022-08-05T00:47:02.165Z,4.00
2022-08-05T00:49:32.554Z,4.00
2022-08-05T00:52:12.134Z,3.90
2022-08-05T00:54:40.162Z,4.00
2022-08-05T00:57:12.283Z,4.40
2022-08-05T00:59:44.518Z,4.10
2022-08-05T01:02:12.471Z,4.20
2022-08-05T01:04:44.439Z,4.00
2022-08-05T01:07:31.759Z,4.30
2022-08-05T01:10:00.539Z,4.30
2022-08-05T01:12:29.695Z,4.40
2022-08-05T01:15:05.331Z,3.80
2022-08-05T01:17:43.863Z,4.30
2022-08-05T01:20:24.678Z,4.20
2022-08-05T01:23:14.430Z,4.20
2022-08-05T01:26:00.454Z,4.40
2022-08-05T01:28:33.287Z,4.30
2022-08-05T01:31:09.129Z,4.70
2022-08-05T01:33:43.359Z,4.30
2022-08-05T01:36:18.728Z,4.40
2022-08-05T01:38:49.752Z,4.70
2022-08-05T01:41:25.787Z,4.70
2022-08-05T01:43:54.816Z,4.10
2022-08-05T01:46:41.942Z,4.30
2022-08-05T01:49:23.594Z,4.70
2022-08-05T01:51:56.736Z,4.10
2022-08-05T01:54:31.275Z,4.10
2022-08-05T01:58:11.160Z,4.20
2022-08-05T01:59:53.660Z,4.70
2022-08-05T02:02:28.455Z,4.50
2022-08-05T02:05:00.782Z,4.60
2022-08-05T02:07:30.235Z,4.60
2022-08-05T02:09:58.882Z,4.70
2022-08-05T02:12:43.274Z,4.00
2022-08-05T02:15:23.383Z,4.60
2022-08-05T02:18:28.535Z,4.60
2022-08-05T02:20:47.261Z,4.30
2022-08-05T02:23:17.153Z,5.00
2022-08-05T02:25:49.698Z,4.80
2022-08-05T02:28:29.104Z,4.90
2022-08-05T02:31:02.098Z,4.20
2022-08-05T02:33:35.916Z,4.30
2022-08-05T02:36:09.979Z,4.40
2022-08-05T02:38:45.038Z,4.80
2022-08-05T02:41:23.406Z,4.80
2022-08-05T02:44:06.054Z,4.70
2022-08-05T02:46:53.218Z,4.50
2022-08-05T02:49:35.868Z,4.40
2022-08-05T02:52:09.066Z,4.60
2022-08-05T02:54:41.629Z,4.70
2022-08-05T02:58:11.320Z,4.90
2022-08-05T03:00:04.157Z,4.80
2022-08-05T03:02:36.371Z,5.00
2022-08-05T03:05:07.370Z,4.40
2022-08-05T03:08:01.183Z,5.40
2022-08-05T03:10:25.277Z,5.20
2022-08-05T03:12:55.101Z,5.00
2022-08-05T03:15:24.444Z,5.40
2022-08-05T03:17:55.516Z,5.40
2022-08-05T03:20:24.472Z,3.90
2022-08-05T03:22:53.070Z,4.50
2022-08-05T03:26:03.718Z,5.10
2022-08-05T03:28:14.488Z,5.20
2022-08-05T03:30:48.109Z,5.30
2022-08-05T03:33:19.646Z,5.10
2022-08-05T03:35:48.479Z,6.00
2022-08-05T03:38:17.981Z,5.10
2022-08-05T03:41:08.152Z,5.10
2022-08-05T03:44:08.930Z,5.20
2022-08-05T03:46:29.577Z,5.60
2022-08-05T03:48:59.624Z,5.20
2022-08-05T03:52:37.117Z,4.40
2022-08-05T03:55:54.143Z,5.00
2022-08-05T03:57:18.564Z,4.60
2022-08-05T03:59:54.529Z,5.10
2022-08-05T04:02:37.536Z,5.70
2022-08-05T04:05:10.254Z,5.70
2022-08-05T04:07:53.073Z,5.70
2022-08-05T04:10:32.070Z,6.20
2022-08-05T04:13:07.717Z,5.80
2022-08-05T04:15:36.450Z,6.10
2022-08-05T04:18:06.762Z,6.20
2022-08-05T04:20:36.125Z,5.40
2022-08-05T04:23:04.303Z,5.90
2022-08-05T04:25:57.829Z,5.70
2022-08-05T04:28:21.167Z,5.80
2022-08-05T04:31:01.155Z,5.50
2022-08-05T04:33:54.510Z,5.70
2022-08-05T04:36:45.295Z,5.50
2022-08-05T04:39:07.637Z,5.60
2022-08-05T04:41:37.765Z,5.60
2022-08-05T04:44:09.274Z,5.80
2022-08-05T04:46:38.874Z,5.90
2022-08-05T04:49:12.391Z,5.10
2022-08-05T04:51:44.132Z,5.90
2022-08-05T04:54:12.005Z,6.20
2022-08-05T04:56:40.305Z,6.00
2022-08-05T04:59:21.696Z,5.40
2022-08-05T05:02:07.230Z,5.20
2022-08-05T05:04:43.968Z,5.10
2022-08-05T05:07:17.263Z,5.50
2022-08-05T05:09:45.829Z,5.60
2022-08-05T05:12:13.551Z,5.20
2022-08-05T05:14:50.853Z,5.00
2022-08-05T05:17:23.812Z,5.50
2022-08-05T05:19:56.558Z,5.20
2022-08-05T05:22:26.356Z,5.50
2022-08-05T05:24:58.577Z,5.70
2022-08-05T05:27:44.166Z,5.00
2022-08-05T05:30:29.497Z,5.20
2022-08-05T05:33:01.275Z,5.30
2022-08-05T05:35:37.817Z,5.20
2022-08-05T05:38:09.481Z,4.70
2022-08-05T05:40:49.837Z,5.10
2022-08-05T05:43:57.193Z,4.80
2022-08-05T05:46:17.744Z,5.30
2022-08-05T05:48:48.024Z,5.90
2022-08-05T05:51:21.478Z,5.00
2022-08-05T05:53:58.234Z,5.40
2022-08-05T05:56:37.038Z,4.60
2022-08-05T05:59:07.012Z,4.50
2022-08-05T06:01:39.796Z,5.80
2022-08-05T06:04:12.754Z,4.80
2022-08-05T06:06:43.318Z,5.10
2022-08-05T06:09:16.991Z,4.80
2022-08-05T06:12:02.451Z,5.20
2022-08-05T06:14:33.426Z,5.20
2022-08-05T06:17:22.372Z,5.40
2022-08-05T06:19:56.688Z,5.90
2022-08-05T06:22:33.512Z,5.10
2022-08-05T06:25:25.028Z,5.30
2022-08-05T06:28:09.029Z,4.80
2022-08-05T06:34:06.836Z,4.50
2022-08-05T06:36:25.831Z,4.60
2022-08-05T06:38:55.116Z,4.70
2022-08-05T06:41:24.604Z,5.00
2022-08-05T06:44:00.158Z,4.70
2022-08-05T06:46:51.035Z,4.70
2022-08-05T06:49:59.818Z,4.50
2022-08-05T06:52:36.746Z,4.40
2022-08-05T06:55:09.533Z,4.00
2022-08-05T06:58:02.964Z,4.80
2022-08-05T07:00:26.700Z,5.10
2022-08-05T07:02:57.307Z,5.00
2022-08-05T07:05:37.267Z,5.10
2022-08-05T07:08:06.984Z,4.80
2022-08-05T07:10:39.735Z,4.10
2022-08-05T07:13:57.932Z,3.90
2022-08-05T07:17:58.199Z,3.60
2022-08-05T07:22:22.134Z,3.90
2022-08-05T07:24:57.882Z,3.90
2022-08-05T07:27:27.386Z,4.10
2022-08-05T07:30:23.946Z,3.90
2022-08-05T07:32:45.082Z,3.40
2022-08-05T07:35:55.759Z,3.70
2022-08-05T07:38:12.256Z,4.00
2022-08-05T07:40:44.487Z,3.90
2022-08-05T07:43:20.168Z,3.80
2022-08-05T07:49:01.678Z,3.40
2022-08-05T07:51:23.731Z,3.60
2022-08-05T07:54:02.684Z,3.90
2022-08-05T07:57:02.420Z,3.80
2022-08-05T07:59:23.282Z,3.40
2022-08-05T08:02:06.995Z,3.60
2022-08-05T08:04:43.043Z,4.00
2022-08-05T08:07:13.319Z,4.00
2022-08-05T08:09:41.168Z,3.90
2022-08-05T08:12:27.521Z,4.00
2022-08-05T08:14:57.514Z,3.60
2022-08-05T08:17:30.503Z,3.80
2022-08-05T08:20:21.653Z,3.90
2022-08-05T08:22:52.067Z,3.80
2022-08-05T08:25:26.449Z,3.50
2022-08-05T08:27:55.105Z,3.30
2022-08-05T08:30:30.008Z,3.50
2022-08-05T08:33:08.371Z,3.30
2022-08-05T08:35:41.528Z,2.90
2022-08-05T08:38:35.394Z,3.10
2022-08-05T08:41:07.498Z,3.00
2022-08-05T08:45:22.070Z,3.00
2022-08-05T08:46:27.265Z,3.20
2022-08-05T08:49:04.137Z,2.90
2022-08-05T08:52:03.098Z,2.80
2022-08-05T08:54:28.154Z,3.00
2022-08-05T08:56:56.596Z,2.90
2022-08-05T08:59:27.686Z,2.90
2022-08-05T09:02:08.492Z,2.90
2022-08-05T09:04:37.350Z,2.90
2022-08-05T09:07:28.770Z,2.80
2022-08-05T09:10:08.418Z,2.80
2022-08-05T09:12:37.817Z,2.60
2022-08-05T09:15:07.462Z,3.00
2022-08-05T09:17:40.639Z,3.00
2022-08-05T09:20:12.158Z,2.40
2022-08-05T09:23:05.449Z,3.30
2022-08-05T09:26:02.518Z,2.50
2022-08-05T09:28:31.615Z,2.80
2022-08-05T09:31:43.710Z,2.70
2022-08-05T09:33:54.048Z,2.40
2022-08-05T09:36:21.953Z,3.10
2022-08-05T09:39:00.082Z,2.50
2022-08-05T09:41:32.766Z,2.50
2022-08-05T09:44:06.138Z,2.10
2022-08-05T09:46:35.054Z,2.50
2022-08-05T09:49:18.575Z,2.30
2022-08-05T09:51:48.846Z,2.40
2022-08-05T09:54:29.627Z,2.10
2022-08-05T09:57:01.354Z,2.40
2022-08-05T09:59:29.681Z,2.40
2022-08-05T10:02:02.981Z,2.40
2022-08-05T10:04:39.500Z,2.40
2022-08-05T10:07:19.659Z,2.10
2022-08-05T10:10:14.662Z,2.20
2022-08-05T10:12:49.834Z,2.10
2022-08-05T10:15:23.478Z,2.30
2022-08-05T10:18:12.539Z,1.90
2022-08-05T10:20:43.095Z,2.30
2022-08-05T10:23:34.252Z,2.10
2022-08-05T10:26:04.997Z,1.90
2022-08-05T10:28:36.552Z,2.10
2022-08-05T10:32:48.095Z,2.40
2022-08-05T10:33:54.711Z,2.40
2022-08-05T10:36:23.759Z,2.50
2022-08-05T10:39:00.397Z,2.20
2022-08-05T10:41:44.863Z,2.80
2022-08-05T10:44:18.738Z,2.60
2022-08-05T10:46:50.875Z,1.80
2022-08-05T10:49:26.789Z,2.80
2022-08-05T10:52:02.513Z,2.30
2022-08-05T10:55:04.923Z,2.20
2022-08-05T10:57:34.250Z,1.80
2022-08-05T11:00:18.635Z,2.10
2022-08-05T11:03:23.573Z,2.00
2022-08-05T11:06:15.812Z,2.30
2022-08-05T11:09:31.960Z,1.90
2022-08-05T11:12:43.709Z,2.00
2022-08-05T11:15:59.338Z,1.80
2022-08-05T11:18:29.953Z,2.20
2022-08-05T11:20:57.795Z,1.90
2022-08-05T11:23:33.626Z,1.90
2022-08-05T11:26:28.360Z,1.70
2022-08-05T11:29:12.271Z,1.90
2022-08-05T11:31:57.877Z,1.90
2022-08-05T11:34:39.969Z,1.90
2022-08-05T11:38:37.400Z,2.00
2022-08-05T11:41:13.956Z,1.50
2022-08-05T11:44:07.307Z,1.40
2022-08-05T11:46:38.035Z,1.70
2022-08-05T11:49:25.611Z,1.90
2022-08-05T11:51:53.685Z,2.00
2022-08-05T11:54:33.971Z,1.90
2022-08-05T11:57:08.643Z,1.80
2022-08-05T11:59:52.715Z,1.60
2022-08-05T12:02:31.976Z,1.80
2022-08-05T12:05:07.405Z,1.70
2022-08-05T12:08:08.963Z,1.70
2022-08-05T12:10:43.602Z,1.30
2022-08-05T12:13:17.262Z,1.30
2022-08-05T12:15:49.998Z,1.70
2022-08-05T12:18:19.080Z,1.70
2022-08-05T12:20:48.799Z,1.50
2022-08-05T12:23:17.000Z,1.80
2022-08-05T12:25:53.371Z,1.80
2022-08-05T12:28:35.166Z,1.50
2022-08-05T12:31:05.306Z,1.80
2022-08-05T12:33:36.729Z,1.70
2022-08-05T12:36:09.300Z,1.20
2022-08-05T12:38:39.690Z,1.30
2022-08-05T12:41:13.970Z,1.30
2022-08-05T12:43:56.053Z,1.50
2022-08-05T12:46:29.037Z,1.80
2022-08-05T12:49:13.024Z,2.90
2022-08-05T12:52:12.789Z,1.60
2022-08-05T12:54:35.903Z,1.50
2022-08-05T12:57:10.243Z,1.60
2022-08-05T13:01:56.868Z,1.50
2022-08-05T13:02:37.310Z,2.10
2022-08-05T13:05:11.093Z,1.40
2022-08-05T13:08:00.162Z,1.30
2022-08-05T13:10:33.701Z,1.50
2022-08-05T13:13:06.556Z,1.60
2022-08-05T13:15:50.299Z,1.60
2022-08-05T13:18:20.198Z,1.50
2022-08-05T13:20:49.316Z,1.70
2022-08-05T13:23:22.417Z,1.60
2022-08-05T13:25:52.412Z,1.40
2022-08-05T13:28:27.521Z,1.40
2022-08-05T13:30:55.049Z,1.50
2022-08-05T13:34:23.189Z,1.50
2022-08-05T13:36:14.510Z,1.30
2022-08-05T13:38:43.237Z,1.40
2022-08-05T13:41:13.524Z,1.30
2022-08-05T13:43:55.195Z,1.30
2022-08-05T13:46:37.989Z,1.20
2022-08-05T13:49:12.195Z,1.20
2022-08-05T13:51:46.220Z,1.30
2022-08-05T13:54:16.068Z,1.40
2022-08-05T13:56:45.163Z,1.50
2022-08-05T13:59:21.370Z,1.40
2022-08-05T14:01:58.242Z,1.40
2022-08-05T14:04:50.021Z,1.90
2022-08-05T14:07:26.362Z,1.40
2022-08-05T14:10:12.386Z,1.20
2022-08-05T14:12:43.001Z,1.20
2022-08-05T14:16:07.938Z,1.50
2022-08-05T14:18:05.479Z,1.40
2022-08-05T14:20:34.035Z,1.40
2022-08-05T14:23:01.613Z,1.30
2022-08-05T14:25:30.430Z,1.30
2022-08-05T14:27:58.408Z,1.40
2022-08-05T14:30:27.860Z,1.30
2022-08-05T14:32:56.738Z,2.90
2022-08-05T14:35:36.956Z,1.20
2022-08-05T14:38:32.405Z,1.20
2022-08-05T14:41:01.501Z,1.10
2022-08-05T14:43:57.516Z,1.20
2022-08-05T14:46:23.047Z,1.00
2022-08-05T14:48:57.003Z,2.10
2022-08-05T14:51:25.154Z,1.00
2022-08-05T14:54:00.570Z,1.10
2022-08-05T14:56:46.941Z,0.90
2022-08-05T14:59:15.186Z,1.00
2022-08-05T15:01:48.115Z,1.00
2022-08-05T15:04:17.323Z,0.80
2022-08-05T15:06:49.458Z,0.80
2022-08-05T15:09:50.566Z,0.70
2022-08-05T15:12:06.954Z,0.80
2022-08-05T15:14:48.292Z,1.00
2022-08-05T15:17:46.222Z,0.80
2022-08-05T15:20:18.605Z,0.70
2022-08-05T15:22:54.004Z,0.90
2022-08-05T15:25:23.592Z,0.70
2022-08-05T15:28:14.566Z,1.40
2022-08-05T15:30:43.751Z,0.80
2022-08-05T15:34:04.375Z,0.70
2022-08-05T15:36:03.622Z,0.90
2022-08-05T15:38:34.062Z,1.00
2022-08-05T15:41:22.672Z,0.90
2022-08-05T15:43:54.569Z,0.70
2022-08-05T15:46:23.998Z,0.90
2022-08-05T15:49:00.802Z,0.90
2022-08-05T15:52:04.479Z,1.00
2022-08-05T15:54:17.709Z,1.00
2022-08-05T15:56:45.300Z,1.30
2022-08-05T15:59:21.617Z,1.10
2022-08-05T16:01:53.323Z,1.20
2022-08-05T16:04:25.489Z,1.20
2022-08-05T16:06:55.587Z,1.20
2022-08-05T16:09:24.477Z,1.10
2022-08-05T16:11:53.776Z,1.20
2022-08-05T16:14:21.852Z,1.20
2022-08-05T16:16:50.268Z,1.20
2022-08-05T16:19:19.169Z,1.20
2022-08-05T16:22:06.908Z,1.40
2022-08-05T16:24:41.567Z,1.20
2022-08-05T16:27:18.721Z,1.30
2022-08-05T16:29:50.350Z,1.20
2022-08-05T16:32:28.282Z,1.50
2022-08-05T16:34:57.410Z,1.70
2022-08-05T16:38:15.677Z,1.50
2022-08-05T16:40:26.643Z,1.50
2022-08-05T16:42:57.231Z,1.40
2022-08-05T16:46:04.941Z,1.50
2022-08-05T16:48:25.264Z,1.40
2022-08-05T16:50:54.294Z,1.50
2022-08-05T16:53:31.821Z,1.30
2022-08-05T16:56:00.451Z,1.70
2022-08-05T16:58:28.060Z,1.70
2022-08-05T17:00:55.613Z,2.20
2022-08-05T17:03:23.184Z,2.00
2022-08-05T17:05:54.026Z,2.40
2022-08-05T17:08:36.473Z,2.50
2022-08-05T17:11:17.164Z,2.60
2022-08-05T17:13:45.378Z,2.60
2022-08-05T17:16:32.656Z,2.80
2022-08-05T17:19:00.892Z,2.50
2022-08-05T17:21:36.151Z,3.30
2022-08-05T17:29:22.508Z,2.20
2022-08-05T17:32:00.519Z,2.40
2022-08-05T17:34:29.568Z,2.60
2022-08-05T17:36:59.603Z,3.20
2022-08-05T17:39:33.218Z,3.20
2022-08-05T17:42:28.553Z,3.30
2022-08-05T17:44:51.057Z,3.70
2022-08-05T17:47:22.248Z,3.60
2022-08-05T17:50:00.350Z,3.40
2022-08-05T17:52:32.456Z,3.90
2022-08-05T17:55:02.968Z,4.00
2022-08-05T17:57:30.813Z,4.00
2022-08-05T18:00:03.611Z,3.20
2022-08-05T18:02:33.347Z,3.00
2022-08-05T18:05:02.793Z,3.80
2022-08-05T18:07:41.543Z,3.50
2022-08-05T18:12:39.345Z,3.30
2022-08-05T18:15:09.158Z,3.90
2022-08-05T18:17:59.600Z,3.00
2022-08-05T18:20:29.279Z,2.40
2022-08-05T18:23:12.025Z,2.40
2022-08-05T18:25:44.757Z,2.70
2022-08-05T18:28:16.643Z,3.00
2022-08-05T18:30:45.497Z,2.80
2022-08-05T18:33:18.431Z,3.20
2022-08-05T18:36:03.376Z,2.90
2022-08-05T18:38:35.016Z,3.00
2022-08-05T18:41:56.091Z,3.40
2022-08-05T18:43:51.578Z,3.60
2022-08-05T18:46:19.834Z,3.40
2022-08-05T18:48:51.973Z,3.50
2022-08-05T18:52:05.669Z,3.70
2022-08-05T18:54:28.348Z,3.90
2022-08-05T18:57:01.091Z,3.80
2022-08-05T18:59:43.382Z,3.80
2022-08-05T19:02:27.769Z,4.30
2022-08-05T19:05:02.395Z,3.70
2022-08-05T19:07:47.407Z,3.70
2022-08-05T19:10:18.787Z,3.50
2022-08-05T19:12:54.554Z,4.00
2022-08-05T19:15:57.844Z,3.60
2022-08-05T19:18:20.981Z,4.10
2022-08-05T19:20:51.426Z,3.90
2022-08-05T19:24:03.292Z,3.70
2022-08-05T19:26:09.159Z,3.70
2022-08-05T19:28:41.553Z,3.90
2022-08-05T19:31:13.466Z,3.40
2022-08-05T19:33:48.446Z,3.60
2022-08-05T19:36:29.533Z,3.30
2022-08-05T19:39:09.870Z,3.20
2022-08-05T19:42:07.170Z,3.50
2022-08-05T19:44:29.239Z,3.30
2022-08-05T19:46:57.914Z,3.30
2022-08-05T19:49:25.654Z,2.90
2022-08-05T19:52:09.179Z,3.10
2022-08-05T19:54:44.800Z,3.40
2022-08-05T19:57:13.120Z,2.90
2022-08-05T20:00:00.784Z,7.30
2022-08-05T20:02:31.974Z,3.20
2022-08-05T20:05:00.189Z,2.50
2022-08-05T20:07:46.931Z,2.60
2022-08-05T20:10:19.366Z,3.00
2022-08-05T20:12:50.472Z,2.60
2022-08-05T20:15:48.589Z,2.90
2022-08-05T20:18:32.735Z,2.70
2022-08-05T20:20:59.991Z,3.10
2022-08-05T20:23:40.147Z,2.80
2022-08-05T20:26:20.660Z,2.50
2022-08-05T20:28:52.701Z,2.40
2022-08-05T20:31:28.804Z,2.80
2022-08-05T20:34:12.875Z,2.70
2022-08-05T20:36:43.284Z,2.50
2022-08-05T20:39:12.897Z,2.60
2022-08-05T20:41:43.971Z,2.70
2022-08-05T20:44:29.922Z,3.10
2022-08-05T20:47:03.281Z,2.70
2022-08-05T20:49:37.798Z,2.50
2022-08-05T20:52:08.061Z,2.60
2022-08-05T20:54:58.943Z,3.00
2022-08-05T20:57:24.870Z,3.10
2022-08-05T21:00:35.098Z,3.00
2022-08-05T21:03:06.182Z,2.90
2022-08-05T21:05:47.436Z,3.00
2022-08-05T21:08:20.904Z,2.50
2022-08-05T21:10:55.325Z,2.60
2022-08-05T21:13:56.489Z,2.50
2022-08-05T21:16:14.885Z,3.50
2022-08-05T21:18:45.230Z,2.90
2022-08-05T21:21:12.988Z,2.90
2022-08-05T21:23:41.122Z,2.80
2022-08-05T21:26:14.410Z,2.90
2022-08-05T21:28:50.528Z,3.10
2022-08-05T21:31:19.007Z,2.90
2022-08-05T21:33:47.687Z,3.00
2022-08-05T21:36:27.717Z,3.10
2022-08-05T21:38:58.475Z,3.00
2022-08-05T21:41:32.968Z,3.10
2022-08-05T21:44:04.227Z,2.80
2022-08-05T21:46:32.404Z,3.30
2022-08-05T21:49:04.604Z,2.60
2022-08-05T21:52:22.618Z,2.80
2022-08-05T21:54:27.797Z,2.90
2022-08-05T21:57:29.602Z,2.20
2022-08-05T22:00:05.969Z,3.00
2022-08-05T22:02:35.335Z,2.50
2022-08-05T22:05:04.428Z,3.00
2022-08-05T22:07:40.200Z,3.50
2022-08-05T22:10:27.029Z,4.70
2022-08-05T22:12:57.207Z,5.00
2022-08-05T22:16:01.563Z,3.50
2022-08-05T22:18:15.420Z,3.40
2022-08-05T22:20:46.655Z,3.50
2022-08-05T22:24:01.900Z,3.00
2022-08-05T22:26:49.515Z,3.20
2022-08-05T22:29:26.470Z,3.20
2022-08-05T22:32:02.913Z,3.40
2022-08-05T22:34:32.485Z,3.20
2022-08-05T22:37:03.907Z,3.80
2022-08-05T22:39:34.446Z,4.00
2022-08-05T22:42:10.076Z,3.30
2022-08-05T22:44:40.299Z,3.20
2022-08-05T22:47:11.229Z,3.50
2022-08-05T22:50:19.055Z,3.50
2022-08-05T22:52:32.303Z,3.30
2022-08-05T22:55:02.279Z,3.20
2022-08-05T22:57:36.373Z,3.30
2022-08-05T23:00:07.702Z,2.90
2022-08-05T23:02:40.053Z,6.30
2022-08-05T23:05:15.058Z,9.40
2022-08-05T23:07:48.204Z,11.80
2022-08-05T23:10:20.167Z,3.80
2022-08-05T23:12:51.490Z,3.20
2022-08-05T23:15:27.147Z,3.40
2022-08-05T23:18:00.850Z,3.00
2022-08-05T23:20:32.602Z,3.80
2022-08-05T23:23:03.365Z,3.60
2022-08-05T23:25:53.203Z,3.80
2022-08-05T23:28:29.227Z,3.70
2022-08-05T23:31:16.524Z,3.30
2022-08-05T23:34:04.477Z,3.60
2022-08-05T23:36:38.755Z,3.50
2022-08-05T23:39:10.022Z,3.60
2022-08-05T23:41:48.450Z,3.90
2022-08-05T23:44:17.511Z,4.30
2022-08-05T23:46:49.262Z,4.70
2022-08-05T23:49:23.676Z,5.40
2022-08-05T23:52:19.688Z,5.10
2022-08-05T23:54:50.370Z,5.00
2022-08-05T23:57:19.965Z,4.60
